sensor_id;sensor_type;location;lat;lon;timestamp;P1;durP1;ratioP1;P2;durP2;ratioP2
12861;SDS011;6499;66.348;14.134;2023-02-12T00:02:24;3.60;;;1.80;;
12861;SDS011;6499;66.348;14.134;2023-02-12T00:04:50;4.73;;;2.17;;
12861;SDS011;6499;66.348;14.134;2023-02-12T00:07:17;3.37;;;2.20;;
12861;SDS011;6499;66.348;14.134;2023-02-12T00:09:44;3.40;;;2.20;;
12861;SDS011;6499;66.348;14.134;2023-02-12T00:12:10;3.37;;;1.77;;
12861;SDS011;6499;66.348;14.134;2023-02-12T00:14:36;4.07;;;2.00;;
12861;SDS011;6499;66.348;14.134;2023-02-12T00:17:03;5.53;;;2.10;;
12861;SDS011;6499;66.348;14.134;2023-02-12T00:19:31;4.00;;;1.93;;
12861;SDS011;6499;66.348;14.134;2023-02-12T00:21:58;4.87;;;2.40;;
12861;SDS011;6499;66.348;14.134;2023-02-12T00:24:25;4.00;;;2.90;;
12861;SDS011;6499;66.348;14.134;2023-02-12T00:26:52;3.97;;;2.70;;
12861;SDS011;6499;66.348;14.134;2023-02-12T00:29:18;3.50;;;2.37;;
12861;SDS011;6499;66.348;14.134;2023-02-12T00:31:44;4.20;;;2.57;;
12861;SDS011;6499;66.348;14.134;2023-02-12T00:34:11;5.17;;;2.77;;
12861;SDS011;6499;66.348;14.134;2023-02-12T00:36:39;5.30;;;3.13;;
12861;SDS011;6499;66.348;14.134;2023-02-12T00:39:05;5.73;;;3.03;;
12861;SDS011;6499;66.348;14.134;2023-02-12T00:41:32;6.00;;;3.13;;
12861;SDS011;6499;66.348;14.134;2023-02-12T00:43:58;5.07;;;2.70;;
12861;SDS011;6499;66.348;14.134;2023-02-12T00:46:25;4.30;;;2.70;;
12861;SDS011;6499;66.348;14.134;2023-02-12T00:48:52;4.37;;;2.53;;
12861;SDS011;6499;66.348;14.134;2023-02-12T00:51:18;5.40;;;2.47;;
12861;SDS011;6499;66.348;14.134;2023-02-12T00:53:46;5.83;;;2.43;;
12861;SDS011;6499;66.348;14.134;2023-02-12T00:56:12;4.07;;;2.40;;
12861;SDS011;6499;66.348;14.134;2023-02-12T00:58:39;4.70;;;2.47;;
12861;SDS011;6499;66.348;14.134;2023-02-12T01:01:05;3.00;;;2.17;;
12861;SDS011;6499;66.348;14.134;2023-02-12T01:03:32;5.07;;;2.80;;
12861;SDS011;6499;66.348;14.134;2023-02-12T01:05:58;4.67;;;2.73;;
12861;SDS011;6499;66.348;14.134;2023-02-12T01:08:25;3.43;;;2.97;;
12861;SDS011;6499;66.348;14.134;2023-02-12T01:10:57;3.70;;;2.10;;
12861;SDS011;6499;66.348;14.134;2023-02-12T01:13:24;3.87;;;2.50;;
12861;SDS011;6499;66.348;14.134;2023-02-12T01:15:59;4.33;;;2.70;;
12861;SDS011;6499;66.348;14.134;2023-02-12T01:18:26;4.93;;;2.77;;
12861;SDS011;6499;66.348;14.134;2023-02-12T01:20:52;4.63;;;2.37;;
12861;SDS011;6499;66.348;14.134;2023-02-12T01:23:19;3.30;;;2.20;;
12861;SDS011;6499;66.348;14.134;2023-02-12T01:25:45;3.40;;;2.27;;
12861;SDS011;6499;66.348;14.134;2023-02-12T01:28:15;4.13;;;2.00;;
12861;SDS011;6499;66.348;14.134;2023-02-12T01:30:42;4.00;;;2.33;;
12861;SDS011;6499;66.348;14.134;2023-02-12T01:33:08;3.30;;;1.90;;
12861;SDS011;6499;66.348;14.134;2023-02-12T01:35:36;3.53;;;2.03;;
12861;SDS011;6499;66.348;14.134;2023-02-12T01:38:02;4.07;;;2.20;;
12861;SDS011;6499;66.348;14.134;2023-02-12T01:40:28;3.77;;;2.13;;
12861;SDS011;6499;66.348;14.134;2023-02-12T01:42:56;3.33;;;1.90;;
12861;SDS011;6499;66.348;14.134;2023-02-12T01:48:07;1.97;;;1.47;;
12861;SDS011;6499;66.348;14.134;2023-02-12T01:50:34;3.17;;;1.70;;
12861;SDS011;6499;66.348;14.134;2023-02-12T01:53:01;2.20;;;1.60;;
12861;SDS011;6499;66.348;14.134;2023-02-12T01:55:27;2.77;;;1.73;;
12861;SDS011;6499;66.348;14.134;2023-02-12T01:57:54;3.03;;;1.47;;
12861;SDS011;6499;66.348;14.134;2023-02-12T02:00:23;2.30;;;1.20;;
12861;SDS011;6499;66.348;14.134;2023-02-12T02:02:50;3.33;;;1.30;;
12861;SDS011;6499;66.348;14.134;2023-02-12T02:05:22;2.23;;;1.00;;
12861;SDS011;6499;66.348;14.134;2023-02-12T02:07:50;2.10;;;1.20;;
12861;SDS011;6499;66.348;14.134;2023-02-12T02:10:17;2.23;;;1.27;;
12861;SDS011;6499;66.348;14.134;2023-02-12T02:12:44;3.13;;;1.37;;
12861;SDS011;6499;66.348;14.134;2023-02-12T02:15:29;3.07;;;1.30;;
12861;SDS011;6499;66.348;14.134;2023-02-12T02:17:56;2.63;;;1.40;;
12861;SDS011;6499;66.348;14.134;2023-02-12T02:23:26;1.83;;;0.90;;
12861;SDS011;6499;66.348;14.134;2023-02-12T02:25:57;2.63;;;1.40;;
12861;SDS011;6499;66.348;14.134;2023-02-12T02:28:42;2.57;;;1.20;;
12861;SDS011;6499;66.348;14.134;2023-02-12T02:31:17;2.27;;;1.37;;
12861;SDS011;6499;66.348;14.134;2023-02-12T02:33:47;1.60;;;0.97;;
12861;SDS011;6499;66.348;14.134;2023-02-12T02:36:20;2.23;;;0.90;;
12861;SDS011;6499;66.348;14.134;2023-02-12T02:38:49;2.47;;;0.87;;
12861;SDS011;6499;66.348;14.134;2023-02-12T02:41:16;2.17;;;1.00;;
12861;SDS011;6499;66.348;14.134;2023-02-12T02:43:47;1.53;;;1.00;;
12861;SDS011;6499;66.348;14.134;2023-02-12T02:46:15;1.77;;;0.80;;
12861;SDS011;6499;66.348;14.134;2023-02-12T02:48:45;2.33;;;1.10;;
12861;SDS011;6499;66.348;14.134;2023-02-12T02:51:14;1.17;;;0.80;;
12861;SDS011;6499;66.348;14.134;2023-02-12T02:53:42;1.77;;;1.00;;
12861;SDS011;6499;66.348;14.134;2023-02-12T02:56:11;2.13;;;1.10;;
12861;SDS011;6499;66.348;14.134;2023-02-12T02:58:40;1.43;;;1.00;;
12861;SDS011;6499;66.348;14.134;2023-02-12T03:01:09;1.50;;;0.80;;
12861;SDS011;6499;66.348;14.134;2023-02-12T03:03:37;1.13;;;0.90;;
12861;SDS011;6499;66.348;14.134;2023-02-12T03:06:07;0.93;;;0.83;;
12861;SDS011;6499;66.348;14.134;2023-02-12T03:08:36;2.63;;;1.00;;
12861;SDS011;6499;66.348;14.134;2023-02-12T03:11:05;1.63;;;0.90;;
12861;SDS011;6499;66.348;14.134;2023-02-12T03:13:33;1.33;;;0.67;;
12861;SDS011;6499;66.348;14.134;2023-02-12T03:16:03;1.43;;;0.80;;
12861;SDS011;6499;66.348;14.134;2023-02-12T03:18:32;1.40;;;0.80;;
12861;SDS011;6499;66.348;14.134;2023-02-12T03:21:01;1.87;;;0.70;;
12861;SDS011;6499;66.348;14.134;2023-02-12T03:23:31;2.10;;;1.10;;
12861;SDS011;6499;66.348;14.134;2023-02-12T03:26:03;3.27;;;1.00;;
12861;SDS011;6499;66.348;14.134;2023-02-12T03:28:31;2.27;;;0.90;;
12861;SDS011;6499;66.348;14.134;2023-02-12T03:30:59;1.40;;;0.90;;
12861;SDS011;6499;66.348;14.134;2023-02-12T03:33:28;2.07;;;0.97;;
12861;SDS011;6499;66.348;14.134;2023-02-12T03:35:57;2.10;;;0.87;;
12861;SDS011;6499;66.348;14.134;2023-02-12T03:38:32;1.40;;;0.90;;
12861;SDS011;6499;66.348;14.134;2023-02-12T03:41:02;1.57;;;0.80;;
12861;SDS011;6499;66.348;14.134;2023-02-12T03:43:32;1.13;;;0.70;;
12861;SDS011;6499;66.348;14.134;2023-02-12T03:46:04;2.27;;;1.00;;
12861;SDS011;6499;66.348;14.134;2023-02-12T03:48:45;1.53;;;0.67;;
12861;SDS011;6499;66.348;14.134;2023-02-12T03:51:14;1.67;;;0.87;;
12861;SDS011;6499;66.348;14.134;2023-02-12T03:53:45;1.87;;;0.87;;
12861;SDS011;6499;66.348;14.134;2023-02-12T03:56:12;0.90;;;0.60;;
12861;SDS011;6499;66.348;14.134;2023-02-12T03:58:40;1.63;;;0.93;;
12861;SDS011;6499;66.348;14.134;2023-02-12T04:01:08;0.80;;;0.70;;
12861;SDS011;6499;66.348;14.134;2023-02-12T04:03:34;1.97;;;0.93;;
12861;SDS011;6499;66.348;14.134;2023-02-12T04:06:01;1.50;;;0.60;;
12861;SDS011;6499;66.348;14.134;2023-02-12T04:08:27;0.70;;;0.70;;
12861;SDS011;6499;66.348;14.134;2023-02-12T04:10:58;0.80;;;0.60;;
12861;SDS011;6499;66.348;14.134;2023-02-12T04:13:31;1.00;;;0.60;;
12861;SDS011;6499;66.348;14.134;2023-02-12T04:16:04;0.93;;;0.63;;
12861;SDS011;6499;66.348;14.134;2023-02-12T04:18:33;1.30;;;0.87;;
12861;SDS011;6499;66.348;14.134;2023-02-12T04:21:04;1.00;;;0.60;;
12861;SDS011;6499;66.348;14.134;2023-02-12T04:26:20;0.83;;;0.60;;
12861;SDS011;6499;66.348;14.134;2023-02-12T04:28:51;0.80;;;0.60;;
12861;SDS011;6499;66.348;14.134;2023-02-12T04:31:22;4.07;;;0.60;;
12861;SDS011;6499;66.348;14.134;2023-02-12T04:33:52;0.73;;;0.63;;
12861;SDS011;6499;66.348;14.134;2023-02-12T04:36:24;1.43;;;0.60;;
12861;SDS011;6499;66.348;14.134;2023-02-12T04:38:52;1.20;;;0.70;;
12861;SDS011;6499;66.348;14.134;2023-02-12T04:41:21;1.87;;;0.90;;
12861;SDS011;6499;66.348;14.134;2023-02-12T04:43:48;1.83;;;0.80;;
12861;SDS011;6499;66.348;14.134;2023-02-12T04:46:14;1.13;;;0.70;;
12861;SDS011;6499;66.348;14.134;2023-02-12T04:48:45;0.90;;;0.60;;
12861;SDS011;6499;66.348;14.134;2023-02-12T04:51:14;1.20;;;0.80;;
12861;SDS011;6499;66.348;14.134;2023-02-12T04:53:41;1.43;;;1.00;;
12861;SDS011;6499;66.348;14.134;2023-02-12T04:56:07;1.33;;;1.00;;
12861;SDS011;6499;66.348;14.134;2023-02-12T04:58:38;1.70;;;0.57;;
12861;SDS011;6499;66.348;14.134;2023-02-12T05:01:04;1.30;;;0.70;;
12861;SDS011;6499;66.348;14.134;2023-02-12T05:03:31;1.20;;;0.70;;
12861;SDS011;6499;66.348;14.134;2023-02-12T05:06:01;1.30;;;0.67;;
12861;SDS011;6499;66.348;14.134;2023-02-12T05:08:27;0.83;;;0.50;;
12861;SDS011;6499;66.348;14.134;2023-02-12T05:10:54;1.33;;;0.70;;
12861;SDS011;6499;66.348;14.134;2023-02-12T05:13:20;0.30;;;0.30;;
12861;SDS011;6499;66.348;14.134;2023-02-12T05:15:48;0.60;;;0.40;;
12861;SDS011;6499;66.348;14.134;2023-02-12T05:18:14;0.67;;;0.50;;
12861;SDS011;6499;66.348;14.134;2023-02-12T05:20:41;2.03;;;0.40;;
12861;SDS011;6499;66.348;14.134;2023-02-12T05:23:07;0.50;;;0.40;;
12861;SDS011;6499;66.348;14.134;2023-02-12T05:25:34;0.60;;;0.50;;
12861;SDS011;6499;66.348;14.134;2023-02-12T05:28:01;0.70;;;0.60;;
12861;SDS011;6499;66.348;14.134;2023-02-12T05:30:27;1.03;;;0.90;;
12861;SDS011;6499;66.348;14.134;2023-02-12T05:32:55;1.20;;;0.93;;
12861;SDS011;6499;66.348;14.134;2023-02-12T05:35:21;2.50;;;1.10;;
12861;SDS011;6499;66.348;14.134;2023-02-12T05:37:48;1.53;;;1.10;;
12861;SDS011;6499;66.348;14.134;2023-02-12T05:40:14;1.23;;;0.83;;
12861;SDS011;6499;66.348;14.134;2023-02-12T05:42:41;1.40;;;0.97;;
12861;SDS011;6499;66.348;14.134;2023-02-12T05:45:07;1.30;;;1.10;;
12861;SDS011;6499;66.348;14.134;2023-02-12T05:47:34;1.30;;;1.10;;
12861;SDS011;6499;66.348;14.134;2023-02-12T05:50:02;1.63;;;0.90;;
12861;SDS011;6499;66.348;14.134;2023-02-12T05:52:28;1.07;;;0.70;;
12861;SDS011;6499;66.348;14.134;2023-02-12T05:54:55;1.10;;;0.83;;
12861;SDS011;6499;66.348;14.134;2023-02-12T05:57:21;1.57;;;0.80;;
12861;SDS011;6499;66.348;14.134;2023-02-12T05:59:48;1.13;;;1.00;;
12861;SDS011;6499;66.348;14.134;2023-02-12T06:02:17;0.80;;;0.80;;
12861;SDS011;6499;66.348;14.134;2023-02-12T06:04:43;1.53;;;1.03;;
12861;SDS011;6499;66.348;14.134;2023-02-12T06:07:11;1.63;;;0.97;;
12861;SDS011;6499;66.348;14.134;2023-02-12T06:09:37;1.13;;;0.80;;
12861;SDS011;6499;66.348;14.134;2023-02-12T06:12:04;0.97;;;0.80;;
12861;SDS011;6499;66.348;14.134;2023-02-12T06:14:30;1.40;;;0.93;;
12861;SDS011;6499;66.348;14.134;2023-02-12T06:16:57;1.40;;;1.00;;
12861;SDS011;6499;66.348;14.134;2023-02-12T06:19:23;2.07;;;1.00;;
12861;SDS011;6499;66.348;14.134;2023-02-12T06:21:50;1.90;;;1.00;;
12861;SDS011;6499;66.348;14.134;2023-02-12T06:24:18;1.97;;;1.00;;
12861;SDS011;6499;66.348;14.134;2023-02-12T06:26:44;1.33;;;1.00;;
12861;SDS011;6499;66.348;14.134;2023-02-12T06:29:11;1.10;;;1.00;;
12861;SDS011;6499;66.348;14.134;2023-02-12T06:31:38;1.93;;;1.30;;
12861;SDS011;6499;66.348;14.134;2023-02-12T06:34:05;1.40;;;0.90;;
12861;SDS011;6499;66.348;14.134;2023-02-12T06:36:32;1.97;;;1.23;;
12861;SDS011;6499;66.348;14.134;2023-02-12T06:38:59;1.73;;;1.20;;
12861;SDS011;6499;66.348;14.134;2023-02-12T06:41:27;2.23;;;1.30;;
12861;SDS011;6499;66.348;14.134;2023-02-12T06:43:54;0.97;;;0.87;;
12861;SDS011;6499;66.348;14.134;2023-02-12T06:46:20;1.20;;;0.87;;
12861;SDS011;6499;66.348;14.134;2023-02-12T06:48:47;0.70;;;0.70;;
12861;SDS011;6499;66.348;14.134;2023-02-12T06:51:14;1.00;;;0.90;;
12861;SDS011;6499;66.348;14.134;2023-02-12T06:53:41;1.33;;;0.60;;
12861;SDS011;6499;66.348;14.134;2023-02-12T06:56:08;1.90;;;0.90;;
12861;SDS011;6499;66.348;14.134;2023-02-12T06:58:38;0.60;;;0.60;;
12861;SDS011;6499;66.348;14.134;2023-02-12T07:01:08;1.07;;;0.60;;
12861;SDS011;6499;66.348;14.134;2023-02-12T07:03:37;0.77;;;0.50;;
12861;SDS011;6499;66.348;14.134;2023-02-12T07:06:04;1.80;;;0.63;;
12861;SDS011;6499;66.348;14.134;2023-02-12T07:08:31;0.70;;;0.50;;
12861;SDS011;6499;66.348;14.134;2023-02-12T07:10:57;2.43;;;0.60;;
12861;SDS011;6499;66.348;14.134;2023-02-12T07:13:23;1.37;;;0.60;;
12861;SDS011;6499;66.348;14.134;2023-02-12T07:15:51;1.80;;;0.50;;
12861;SDS011;6499;66.348;14.134;2023-02-12T07:18:18;2.63;;;0.73;;
12861;SDS011;6499;66.348;14.134;2023-02-12T07:20:44;4.63;;;1.10;;
12861;SDS011;6499;66.348;14.134;2023-02-12T07:23:11;3.83;;;1.00;;
12861;SDS011;6499;66.348;14.134;2023-02-12T07:25:37;4.07;;;1.07;;
12861;SDS011;6499;66.348;14.134;2023-02-12T07:28:04;3.80;;;1.20;;
12861;SDS011;6499;66.348;14.134;2023-02-12T07:30:30;5.70;;;3.43;;
12861;SDS011;6499;66.348;14.134;2023-02-12T07:32:58;7.60;;;2.67;;
12861;SDS011;6499;66.348;14.134;2023-02-12T07:35:27;6.97;;;2.47;;
12861;SDS011;6499;66.348;14.134;2023-02-12T07:37:54;8.67;;;2.87;;
12861;SDS011;6499;66.348;14.134;2023-02-12T07:40:20;7.73;;;2.20;;
12861;SDS011;6499;66.348;14.134;2023-02-12T07:42:47;15.57;;;3.53;;
12861;SDS011;6499;66.348;14.134;2023-02-12T07:45:19;15.67;;;2.70;;
12861;SDS011;6499;66.348;14.134;2023-02-12T07:47:45;11.13;;;2.87;;
12861;SDS011;6499;66.348;14.134;2023-02-12T07:50:13;14.77;;;3.20;;
12861;SDS011;6499;66.348;14.134;2023-02-12T07:52:42;20.63;;;3.20;;
12861;SDS011;6499;66.348;14.134;2023-02-12T07:55:09;16.13;;;3.60;;
12861;SDS011;6499;66.348;14.134;2023-02-12T07:57:35;12.73;;;2.77;;
12861;SDS011;6499;66.348;14.134;2023-02-12T08:00:02;13.03;;;3.10;;
12861;SDS011;6499;66.348;14.134;2023-02-12T08:02:29;13.03;;;2.53;;
12861;SDS011;6499;66.348;14.134;2023-02-12T08:04:55;16.87;;;2.43;;
12861;SDS011;6499;66.348;14.134;2023-02-12T08:07:23;15.40;;;2.83;;
12861;SDS011;6499;66.348;14.134;2023-02-12T08:09:50;12.77;;;3.30;;
12861;SDS011;6499;66.348;14.134;2023-02-12T08:12:16;14.60;;;2.57;;
12861;SDS011;6499;66.348;14.134;2023-02-12T08:14:43;8.73;;;2.40;;
12861;SDS011;6499;66.348;14.134;2023-02-12T08:17:09;13.07;;;3.27;;
12861;SDS011;6499;66.348;14.134;2023-02-12T08:19:36;19.77;;;10.63;;
12861;SDS011;6499;66.348;14.134;2023-02-12T08:24:42;11.63;;;2.67;;
12861;SDS011;6499;66.348;14.134;2023-02-12T08:27:10;10.73;;;2.80;;
12861;SDS011;6499;66.348;14.134;2023-02-12T08:29:36;13.73;;;3.27;;
12861;SDS011;6499;66.348;14.134;2023-02-12T08:32:03;8.13;;;1.80;;
12861;SDS011;6499;66.348;14.134;2023-02-12T08:34:34;5.10;;;1.60;;
12861;SDS011;6499;66.348;14.134;2023-02-12T08:37:01;4.77;;;1.53;;
12861;SDS011;6499;66.348;14.134;2023-02-12T08:39:29;4.07;;;1.03;;
12861;SDS011;6499;66.348;14.134;2023-02-12T08:41:57;3.97;;;1.10;;
12861;SDS011;6499;66.348;14.134;2023-02-12T08:44:25;4.43;;;1.37;;
12861;SDS011;6499;66.348;14.134;2023-02-12T08:46:52;6.23;;;1.17;;
12861;SDS011;6499;66.348;14.134;2023-02-12T08:49:20;4.40;;;1.30;;
12861;SDS011;6499;66.348;14.134;2023-02-12T08:51:47;4.40;;;1.10;;
12861;SDS011;6499;66.348;14.134;2023-02-12T08:54:15;3.47;;;1.10;;
12861;SDS011;6499;66.348;14.134;2023-02-12T08:56:41;2.73;;;1.10;;
12861;SDS011;6499;66.348;14.134;2023-02-12T08:59:10;3.13;;;1.07;;
12861;SDS011;6499;66.348;14.134;2023-02-12T09:01:37;4.80;;;3.67;;
12861;SDS011;6499;66.348;14.134;2023-02-12T09:04:06;2.27;;;1.37;;
12861;SDS011;6499;66.348;14.134;2023-02-12T09:06:33;5.93;;;1.30;;
12861;SDS011;6499;66.348;14.134;2023-02-12T09:09:00;4.27;;;1.37;;
12861;SDS011;6499;66.348;14.134;2023-02-12T09:11:27;4.93;;;1.23;;
12861;SDS011;6499;66.348;14.134;2023-02-12T09:13:55;5.83;;;1.17;;
12861;SDS011;6499;66.348;14.134;2023-02-12T09:16:24;6.60;;;1.40;;
12861;SDS011;6499;66.348;14.134;2023-02-12T09:18:50;4.63;;;1.50;;
12861;SDS011;6499;66.348;14.134;2023-02-12T09:21:17;6.97;;;1.60;;
12861;SDS011;6499;66.348;14.134;2023-02-12T09:23:44;8.07;;;2.20;;
12861;SDS011;6499;66.348;14.134;2023-02-12T09:26:11;10.67;;;2.20;;
12861;SDS011;6499;66.348;14.134;2023-02-12T09:28:39;6.83;;;2.07;;
12861;SDS011;6499;66.348;14.134;2023-02-12T09:31:06;8.37;;;3.00;;
12861;SDS011;6499;66.348;14.134;2023-02-12T09:33:34;14.57;;;2.83;;
12861;SDS011;6499;66.348;14.134;2023-02-12T09:36:01;13.33;;;2.90;;
12861;SDS011;6499;66.348;14.134;2023-02-12T09:38:28;10.87;;;3.27;;
12861;SDS011;6499;66.348;14.134;2023-02-12T09:41:00;11.47;;;2.57;;
12861;SDS011;6499;66.348;14.134;2023-02-12T09:43:32;14.47;;;2.97;;
12861;SDS011;6499;66.348;14.134;2023-02-12T09:46:00;18.63;;;3.60;;
12861;SDS011;6499;66.348;14.134;2023-02-12T09:48:40;15.83;;;3.40;;
12861;SDS011;6499;66.348;14.134;2023-02-12T09:51:10;21.13;;;4.40;;
12861;SDS011;6499;66.348;14.134;2023-02-12T09:53:38;15.67;;;3.93;;
12861;SDS011;6499;66.348;14.134;2023-02-12T09:56:08;13.07;;;3.33;;
12861;SDS011;6499;66.348;14.134;2023-02-12T09:58:37;21.07;;;4.07;;
12861;SDS011;6499;66.348;14.134;2023-02-12T10:01:09;19.60;;;4.50;;
12861;SDS011;6499;66.348;14.134;2023-02-12T10:03:36;15.23;;;3.50;;
12861;SDS011;6499;66.348;14.134;2023-02-12T10:06:04;15.03;;;4.00;;
12861;SDS011;6499;66.348;14.134;2023-02-12T10:08:38;22.87;;;4.47;;
12861;SDS011;6499;66.348;14.134;2023-02-12T10:11:14;19.13;;;3.60;;
12861;SDS011;6499;66.348;14.134;2023-02-12T10:13:45;14.50;;;4.13;;
12861;SDS011;6499;66.348;14.134;2023-02-12T10:16:13;11.00;;;3.57;;
12861;SDS011;6499;66.348;14.134;2023-02-12T10:18:51;12.50;;;3.63;;
12861;SDS011;6499;66.348;14.134;2023-02-12T10:21:21;15.93;;;4.10;;
12861;SDS011;6499;66.348;14.134;2023-02-12T10:23:54;15.10;;;3.47;;
12861;SDS011;6499;66.348;14.134;2023-02-12T10:26:24;13.90;;;3.87;;
12861;SDS011;6499;66.348;14.134;2023-02-12T10:28:53;22.73;;;4.27;;
12861;SDS011;6499;66.348;14.134;2023-02-12T10:31:25;21.07;;;4.13;;
12861;SDS011;6499;66.348;14.134;2023-02-12T10:33:53;14.30;;;4.13;;
12861;SDS011;6499;66.348;14.134;2023-02-12T10:36:25;21.77;;;4.50;;
12861;SDS011;6499;66.348;14.134;2023-02-12T10:38:56;15.27;;;3.50;;
12861;SDS011;6499;66.348;14.134;2023-02-12T10:41:23;17.33;;;3.93;;
12861;SDS011;6499;66.348;14.134;2023-02-12T10:43:52;15.53;;;4.10;;
12861;SDS011;6499;66.348;14.134;2023-02-12T10:46:19;22.70;;;4.03;;
12861;SDS011;6499;66.348;14.134;2023-02-12T10:48:45;20.10;;;4.93;;
12861;SDS011;6499;66.348;14.134;2023-02-12T10:51:22;38.43;;;13.40;;
12861;SDS011;6499;66.348;14.134;2023-02-12T10:53:51;18.97;;;4.50;;
12861;SDS011;6499;66.348;14.134;2023-02-12T10:56:20;18.00;;;4.70;;
12861;SDS011;6499;66.348;14.134;2023-02-12T10:58:52;19.00;;;4.67;;
12861;SDS011;6499;66.348;14.134;2023-02-12T11:01:20;22.40;;;4.67;;
12861;SDS011;6499;66.348;14.134;2023-02-12T11:03:47;21.13;;;5.57;;
12861;SDS011;6499;66.348;14.134;2023-02-12T11:06:14;24.33;;;5.57;;
12861;SDS011;6499;66.348;14.134;2023-02-12T11:08:41;24.30;;;5.50;;
12861;SDS011;6499;66.348;14.134;2023-02-12T11:11:09;25.93;;;5.03;;
12861;SDS011;6499;66.348;14.134;2023-02-12T11:13:38;27.87;;;6.33;;
12861;SDS011;6499;66.348;14.134;2023-02-12T11:16:04;20.23;;;5.53;;
12861;SDS011;6499;66.348;14.134;2023-02-12T11:18:31;23.70;;;4.47;;
12861;SDS011;6499;66.348;14.134;2023-02-12T11:20:59;20.07;;;4.97;;
12861;SDS011;6499;66.348;14.134;2023-02-12T11:23:26;20.70;;;4.83;;
12861;SDS011;6499;66.348;14.134;2023-02-12T11:25:54;18.10;;;3.73;;
12861;SDS011;6499;66.348;14.134;2023-02-12T11:28:21;19.80;;;4.87;;
12861;SDS011;6499;66.348;14.134;2023-02-12T11:30:50;23.80;;;5.40;;
12861;SDS011;6499;66.348;14.134;2023-02-12T11:33:24;21.13;;;4.73;;
12861;SDS011;6499;66.348;14.134;2023-02-12T11:35:52;20.87;;;4.23;;
12861;SDS011;6499;66.348;14.134;2023-02-12T11:38:21;16.93;;;4.77;;
12861;SDS011;6499;66.348;14.134;2023-02-12T11:40:48;18.10;;;4.93;;
12861;SDS011;6499;66.348;14.134;2023-02-12T11:43:16;17.30;;;4.83;;
12861;SDS011;6499;66.348;14.134;2023-02-12T11:45:44;17.53;;;4.70;;
12861;SDS011;6499;66.348;14.134;2023-02-12T11:48:16;16.67;;;3.63;;
12861;SDS011;6499;66.348;14.134;2023-02-12T11:50:47;16.87;;;3.70;;
12861;SDS011;6499;66.348;14.134;2023-02-12T11:53:19;14.23;;;3.23;;
12861;SDS011;6499;66.348;14.134;2023-02-12T11:55:55;15.87;;;3.33;;
12861;SDS011;6499;66.348;14.134;2023-02-12T11:58:22;16.53;;;3.40;;
12861;SDS011;6499;66.348;14.134;2023-02-12T12:00:56;13.93;;;3.40;;
12861;SDS011;6499;66.348;14.134;2023-02-12T12:03:25;12.90;;;2.83;;
12861;SDS011;6499;66.348;14.134;2023-02-12T12:05:55;12.60;;;3.13;;
12861;SDS011;6499;66.348;14.134;2023-02-12T12:08:22;16.23;;;3.97;;
12861;SDS011;6499;66.348;14.134;2023-02-12T12:10:54;18.47;;;3.70;;
12861;SDS011;6499;66.348;14.134;2023-02-12T12:13:22;17.20;;;4.63;;
12861;SDS011;6499;66.348;14.134;2023-02-12T12:15:50;25.97;;;5.10;;
12861;SDS011;6499;66.348;14.134;2023-02-12T12:18:38;21.57;;;5.13;;
12861;SDS011;6499;66.348;14.134;2023-02-12T12:21:25;20.90;;;5.00;;
12861;SDS011;6499;66.348;14.134;2023-02-12T12:23:59;22.43;;;5.33;;
12861;SDS011;6499;66.348;14.134;2023-02-12T12:26:27;24.33;;;5.60;;
12861;SDS011;6499;66.348;14.134;2023-02-12T12:28:56;28.03;;;6.97;;
12861;SDS011;6499;66.348;14.134;2023-02-12T12:31:27;23.10;;;6.30;;
12861;SDS011;6499;66.348;14.134;2023-02-12T12:33:56;28.07;;;5.57;;
12861;SDS011;6499;66.348;14.134;2023-02-12T12:39:13;28.67;;;5.30;;
12861;SDS011;6499;66.348;14.134;2023-02-12T12:41:49;28.17;;;5.63;;
12861;SDS011;6499;66.348;14.134;2023-02-12T12:44:21;20.13;;;5.40;;
12861;SDS011;6499;66.348;14.134;2023-02-12T12:47:09;20.17;;;5.17;;
12861;SDS011;6499;66.348;14.134;2023-02-12T12:52:28;23.90;;;5.90;;
12861;SDS011;6499;66.348;14.134;2023-02-12T12:55:01;23.43;;;5.40;;
12861;SDS011;6499;66.348;14.134;2023-02-12T12:57:35;21.73;;;4.73;;
12861;SDS011;6499;66.348;14.134;2023-02-12T13:00:13;24.23;;;5.43;;
12861;SDS011;6499;66.348;14.134;2023-02-12T13:05:37;28.27;;;6.73;;
12861;SDS011;6499;66.348;14.134;2023-02-12T13:08:07;26.87;;;7.83;;
12861;SDS011;6499;66.348;14.134;2023-02-12T13:10:38;28.37;;;6.27;;
12861;SDS011;6499;66.348;14.134;2023-02-12T13:13:08;26.27;;;5.97;;
12861;SDS011;6499;66.348;14.134;2023-02-12T13:15:40;30.20;;;6.03;;
12861;SDS011;6499;66.348;14.134;2023-02-12T13:18:16;23.20;;;4.83;;
12861;SDS011;6499;66.348;14.134;2023-02-12T13:20:46;22.03;;;4.87;;
12861;SDS011;6499;66.348;14.134;2023-02-12T13:23:19;28.07;;;5.40;;
12861;SDS011;6499;66.348;14.134;2023-02-12T13:25:50;23.90;;;5.90;;
12861;SDS011;6499;66.348;14.134;2023-02-12T13:28:21;21.93;;;5.20;;
12861;SDS011;6499;66.348;14.134;2023-02-12T13:30:49;19.07;;;5.13;;
12861;SDS011;6499;66.348;14.134;2023-02-12T13:33:19;19.37;;;4.10;;
12861;SDS011;6499;66.348;14.134;2023-02-12T13:35:55;18.80;;;4.77;;
12861;SDS011;6499;66.348;14.134;2023-02-12T13:38:25;23.17;;;5.37;;
12861;SDS011;6499;66.348;14.134;2023-02-12T13:40:53;23.00;;;5.70;;
12861;SDS011;6499;66.348;14.134;2023-02-12T13:43:26;21.67;;;5.20;;
12861;SDS011;6499;66.348;14.134;2023-02-12T13:45:57;22.17;;;5.67;;
12861;SDS011;6499;66.348;14.134;2023-02-12T13:48:29;21.90;;;5.90;;
12861;SDS011;6499;66.348;14.134;2023-02-12T13:51:00;21.27;;;5.47;;
12861;SDS011;6499;66.348;14.134;2023-02-12T13:53:31;25.77;;;6.50;;
12861;SDS011;6499;66.348;14.134;2023-02-12T13:59:01;23.63;;;5.93;;
12861;SDS011;6499;66.348;14.134;2023-02-12T14:01:35;24.93;;;5.43;;
12861;SDS011;6499;66.348;14.134;2023-02-12T14:04:21;27.23;;;6.10;;
12861;SDS011;6499;66.348;14.134;2023-02-12T14:06:50;24.27;;;5.93;;
12861;SDS011;6499;66.348;14.134;2023-02-12T14:09:20;21.13;;;5.90;;
12861;SDS011;6499;66.348;14.134;2023-02-12T14:11:49;26.47;;;5.70;;
12861;SDS011;6499;66.348;14.134;2023-02-12T14:14:22;28.60;;;5.07;;
12861;SDS011;6499;66.348;14.134;2023-02-12T14:16:49;20.23;;;5.27;;
12861;SDS011;6499;66.348;14.134;2023-02-12T14:22:10;27.80;;;5.23;;
12861;SDS011;6499;66.348;14.134;2023-02-12T14:24:49;21.83;;;5.90;;
12861;SDS011;6499;66.348;14.134;2023-02-12T14:27:26;19.47;;;5.40;;
12861;SDS011;6499;66.348;14.134;2023-02-12T14:30:18;33.80;;;5.70;;
12861;SDS011;6499;66.348;14.134;2023-02-12T14:33:08;27.47;;;5.63;;
12861;SDS011;6499;66.348;14.134;2023-02-12T14:35:41;19.47;;;5.13;;
12861;SDS011;6499;66.348;14.134;2023-02-12T14:40:59;29.70;;;5.87;;
12861;SDS011;6499;66.348;14.134;2023-02-12T14:46:44;23.63;;;5.40;;
12861;SDS011;6499;66.348;14.134;2023-02-12T14:49:17;19.20;;;4.27;;
12861;SDS011;6499;66.348;14.134;2023-02-12T14:51:45;24.67;;;4.60;;
12861;SDS011;6499;66.348;14.134;2023-02-12T14:54:17;16.53;;;4.13;;
12861;SDS011;6499;66.348;14.134;2023-02-12T14:56:48;27.97;;;4.93;;
12861;SDS011;6499;66.348;14.134;2023-02-12T14:59:16;23.07;;;5.30;;
12861;SDS011;6499;66.348;14.134;2023-02-12T15:01:43;21.70;;;5.00;;
12861;SDS011;6499;66.348;14.134;2023-02-12T15:04:10;19.63;;;4.70;;
12861;SDS011;6499;66.348;14.134;2023-02-12T15:06:38;21.57;;;5.43;;
12861;SDS011;6499;66.348;14.134;2023-02-12T15:09:07;21.00;;;6.17;;
12861;SDS011;6499;66.348;14.134;2023-02-12T15:11:38;28.10;;;7.23;;
12861;SDS011;6499;66.348;14.134;2023-02-12T15:14:10;17.53;;;5.73;;
12861;SDS011;6499;66.348;14.134;2023-02-12T15:16:40;20.67;;;4.87;;
12861;SDS011;6499;66.348;14.134;2023-02-12T15:19:13;21.40;;;5.27;;
12861;SDS011;6499;66.348;14.134;2023-02-12T15:21:43;21.97;;;5.60;;
12861;SDS011;6499;66.348;14.134;2023-02-12T15:24:11;21.57;;;5.60;;
12861;SDS011;6499;66.348;14.134;2023-02-12T15:26:38;28.57;;;5.70;;